Time;durP1;ratioP1;P1;durP2;ratioP2;P2;SDS_P1;SDS_P2;PMS_P1;PMS_P2;Temp;Humidity;BMP_temperature;BMP_pressure;BME280_temperature;BME280_humidity;BME280_pressure;Samples;Min_cycle;Max_cycle;Signal;HPM_P1;HPM_P2
2022/05/16 00:00:44;;;;;;;;;6.00;5.75;;;;;19.25;78.53;100646.09;5111737;27;45093;-81
2022/05/16 00:03:10;;;;;;;;;5.50;5.00;;;;;19.70;77.88;100716.19;5130348;27;45883;-81
2022/05/16 00:05:36;;;;;;;;;6.00;5.75;;;;;19.37;77.74;100678.06;5127497;27;45120;-81
2022/05/16 00:08:02;;;;;;;;;6.50;5.75;;;;;19.80;77.77;100747.25;5131526;27;45129;-82
2022/05/16 00:10:27;;;;;;;;;7.75;7.00;;;;;19.83;77.34;100731.25;5126700;27;45087;-81
2022/05/16 00:12:53;;;;;;;;;6.50;6.00;;;;;19.70;77.10;100689.53;5110636;27;45481;-81
2022/05/16 00:15:22;;;;;;;;;5.00;5.00;;;;;19.90;77.31;100718.78;5130180;27;45439;-81
2022/05/16 00:17:47;;;;;;;;;5.00;4.00;;;;;19.72;77.46;100683.31;5129763;27;45114;-81
2022/05/16 00:20:14;;;;;;;;;6.50;6.00;;;;;19.89;83.57;100709.91;5122652;27;45058;-81
2022/05/16 00:22:39;;;;;;;;;6.00;6.00;;;;;19.51;85.98;100652.25;5109336;27;45727;-81
2022/05/16 00:25:06;;;;;;;;;7.00;6.00;;;;;19.72;86.71;100691.31;5125446;27;45516;-81
2022/05/16 00:27:34;;;;;;;;;6.50;6.25;;;;;19.54;87.43;100668.22;5111401;27;45075;-81
2022/05/16 00:30:01;;;;;;;;;7.50;6.50;;;;;19.35;87.53;100682.47;5112496;27;45043;-81
2022/05/16 00:32:27;;;;;;;;;6.75;6.50;;;;;19.39;87.08;100689.59;5129647;27;45440;-81
2022/05/16 00:34:52;;;;;;;;;6.00;5.50;;;;;19.67;85.56;100729.56;5130446;27;44975;-81
2022/05/16 00:37:17;;;;;;;;;6.50;6.00;;;;;19.59;84.16;100717.09;5130197;27;44987;-81
2022/05/16 00:39:43;;;;;;;;;6.00;6.00;;;;;19.54;81.14;100678.88;5130867;27;44986;-80
2022/05/16 00:42:11;;;;;;;;;5.75;5.50;;;;;19.74;80.08;100710.84;5129918;27;45838;-80
2022/05/16 00:44:38;;;;;;;;;8.00;6.50;;;;;19.85;79.90;100724.13;5130424;27;45929;-81
2022/05/16 00:47:04;;;;;;;;;7.00;7.00;;;;;19.77;79.36;100704.63;5123513;27;45141;-81
2022/05/16 00:49:33;;;;;;;;;7.25;6.75;;;;;19.61;78.69;100670.91;5123207;27;45238;-81
2022/05/16 00:52:05;;;;;;;;;6.00;6.00;;;;;19.84;78.79;100709.03;5130320;27;45868;-81
2022/05/16 00:54:36;;;;;;;;;6.75;6.00;;;;;19.51;78.65;100648.69;5129878;27;45590;-80
2022/05/16 00:57:08;;;;;;;;;7.00;6.00;;;;;19.58;78.17;100658.44;5111822;27;45020;-82
2022/05/16 00:59:46;;;;;;;;;7.00;6.25;;;;;19.74;77.92;100683.28;5126649;27;45235;-81
2022/05/16 01:04:56;;;;;;;;;7.50;6.75;;;;;19.55;77.62;100663.75;5113552;27;45560;-81
2022/05/16 01:07:34;;;;;;;;;6.25;6.00;;;;;19.66;77.70;100696.66;5120680;27;45416;-80
2022/05/16 01:09:59;;;;;;;;;12.25;8.50;;;;;19.13;77.69;100624.81;5111964;27;45125;-81
2022/05/16 01:12:32;;;;;;;;;7.75;7.50;;;;;19.47;77.80;100701.13;5129781;27;46001;-81
2022/05/16 01:14:58;;;;;;;;;8.00;7.00;;;;;19.29;78.27;100675.38;5130284;27;45602;-81
2022/05/16 01:17:24;;;;;;;;;8.75;6.75;;;;;19.39;77.97;100692.25;5110525;27;45040;-81
2022/05/16 01:19:50;;;;;;;;;5.00;5.00;;;;;19.24;77.63;100673.63;5108170;27;45231;-80
2022/05/16 01:22:27;;;;;;;;;5.00;5.00;;;;;19.40;78.29;100699.34;5108058;27;45398;-81
2022/05/16 01:24:55;;;;;;;;;6.75;6.75;;;;;19.23;77.77;100678.06;5109441;27;45486;-81
2022/05/16 01:27:21;;;;;;;;;6.00;6.00;;;;;19.40;77.90;100710.00;5090384;27;45079;-81
2022/05/16 01:29:47;;;;;;;;;5.25;5.25;;;;;19.23;78.48;100678.06;5108386;27;45149;-80
2022/05/16 01:32:13;;;;;;;;;5.25;5.00;;;;;19.26;77.68;100695.81;5089627;27;47473;-80
2022/05/16 01:34:39;;;;;;;;;6.50;5.50;;;;;19.22;77.88;100694.06;5108770;27;45048;-81
2022/05/16 01:37:05;;;;;;;;;7.00;6.25;;;;;19.21;77.64;100693.19;5108541;27;45047;-81
2022/05/16 01:39:30;;;;;;;;;7.00;6.00;;;;;19.23;77.93;100674.53;5089352;27;45073;-80
2022/05/16 01:41:56;;;;;;;;;6.75;6.75;;;;;19.23;77.38;100670.09;5109356;27;45566;-81
2022/05/16 01:44:21;;;;;;;;;6.50;6.00;;;;;19.18;77.67;100671.88;5108698;27;45279;-80
2022/05/16 01:46:46;;;;;;;;;7.50;7.50;;;;;19.30;77.55;100706.47;5090425;27;45228;-80
2022/05/16 01:49:12;;;;;;;;;8.00;7.00;;;;;19.29;77.54;100715.38;5109139;27;45013;-80
2022/05/16 01:51:38;;;;;;;;;6.25;6.25;;;;;19.24;77.53;100702.94;5108172;27;45983;-81
2022/05/16 01:54:05;;;;;;;;;7.25;7.25;;;;;19.36;76.90;100724.25;5107651;27;45812;-81
2022/05/16 01:56:35;;;;;;;;;8.00;8.00;;;;;19.31;76.99;100726.03;5119553;27;45150;-81
2022/05/16 01:59:03;;;;;;;;;7.25;7.00;;;;;18.98;77.38;100674.56;5109427;27;45149;-81
2022/05/16 02:01:29;;;;;;;;;7.25;7.25;;;;;19.15;77.05;100702.94;5107684;27;46061;-81
2022/05/16 02:03:54;;;;;;;;;7.25;7.25;;;;;19.10;77.11;100688.75;5109172;27;44999;-81
2022/05/16 02:06:20;;;;;;;;;8.00;7.00;;;;;19.20;76.92;100712.72;5108377;27;45233;-80
2022/05/16 02:08:48;;;;;;;;;5.25;5.00;;;;;18.97;77.24;100667.47;5108475;27;45133;-80
2022/05/16 02:11:14;;;;;;;;;8.00;8.00;;;;;19.31;77.00;100732.25;5100011;27;47668;-81
2022/05/16 02:13:41;;;;;;;;;9.25;8.00;;;;;19.04;76.74;100687.88;5110612;27;45196;-81
2022/05/16 02:16:08;;;;;;;;;8.00;8.00;;;;;19.32;77.49;100727.81;5110238;27;44922;-81
2022/05/16 02:18:33;;;;;;;;;6.25;6.25;;;;;19.14;76.67;100691.41;5110676;27;45321;-82
2022/05/16 02:26:27;;;;;;;;;9.00;8.50;;;;;19.12;76.44;100705.63;5129124;27;45403;-81
2022/05/16 02:28:53;;;;;;;;;9.50;9.00;;;;;19.26;76.37;100727.78;5112254;27;45294;-80
2022/05/16 02:31:20;;;;;;;;;8.75;8.50;;;;;19.26;76.33;100717.13;5131953;27;45724;-81
2022/05/16 02:33:46;;;;;;;;;12.00;11.25;;;;;19.04;76.38;100687.88;5132593;27;45358;-81
2022/05/16 02:36:11;;;;;;;;;10.25;9.50;;;;;18.89;76.02;100645.28;5132416;27;45141;-82
2022/05/16 02:38:37;;;;;;;;;9.00;9.00;;;;;19.16;76.61;100702.06;5132314;27;45267;-81
2022/05/16 02:41:02;;;;;;;;;10.50;9.50;;;;;19.18;76.44;100713.63;5103698;27;46040;-80
2022/05/16 02:43:27;;;;;;;;;11.25;10.00;;;;;19.04;76.45;100689.66;5121476;27;45353;-81
2022/05/16 02:45:52;;;;;;;;;10.50;9.50;;;;;19.06;76.54;100696.75;5132144;27;45265;-81
2022/05/16 02:48:18;;;;;;;;;11.33;9.33;;;;;19.09;76.08;100693.19;5132326;27;45012;-81
2022/05/16 02:50:43;;;;;;;;;7.00;7.00;;;;;19.12;76.54;100689.66;5113319;27;47202;-81
2022/05/16 02:53:10;;;;;;;;;11.25;9.75;;;;;19.40;76.59;100735.78;5132022;27;45080;-81
2022/05/16 02:55:35;;;;;;;;;10.75;10.00;;;;;19.34;77.11;100726.91;5113666;27;45359;-81
2022/05/16 02:58:01;;;;;;;;;10.00;10.00;;;;;19.40;77.09;100731.34;5132701;27;45300;-81
2022/05/16 03:00:27;;;;;;;;;12.50;12.00;;;;;19.26;76.45;100703.81;5131084;27;45190;-81
2022/05/16 03:02:52;;;;;;;;;14.50;14.00;;;;;19.08;76.67;100671.00;5121952;27;45411;-81
2022/05/16 03:05:18;;;;;;;;;13.25;12.00;;;;;19.29;76.49;100706.50;5111380;27;45107;-81
2022/05/16 03:07:43;;;;;;;;;12.75;11.75;;;;;19.23;76.65;100702.06;5111240;27;45125;-81
2022/05/16 03:10:15;;;;;;;;;14.75;14.75;;;;;19.42;76.21;100740.22;5111543;27;45524;-81
2022/05/16 03:12:40;;;;;;;;;12.75;12.75;;;;;19.31;76.31;100720.72;5092164;27;45213;-81
2022/05/16 03:15:06;;;;;;;;;14.50;13.75;;;;;19.16;76.29;100694.06;5111341;27;45431;-81
2022/05/16 03:17:31;;;;;;;;;16.75;16.00;;;;;19.16;76.06;100691.41;5092219;27;45246;-81
2022/05/16 03:19:59;;;;;;;;;14.50;14.00;;;;;19.38;76.25;100738.47;5092830;27;46957;-81
2022/05/16 03:22:24;;;;;;;;;15.00;13.75;;;;;19.28;75.87;100726.03;5091168;27;45710;-80
2022/05/16 03:24:50;;;;;;;;;14.00;13.75;;;;;19.32;76.23;100752.69;5093069;27;45149;-81
2022/05/16 03:27:15;;;;;;;;;15.25;14.00;;;;;19.20;76.15;100725.16;5092103;27;47750;-81
2022/05/16 03:29:41;;;;;;;;;16.75;16.75;;;;;19.28;76.37;100742.91;5110499;27;48514;-80
2022/05/16 03:32:07;;;;;;;;;18.00;15.00;;;;;19.29;76.25;100744.69;5110937;27;45518;-81
2022/05/16 03:34:32;;;;;;;;;15.50;14.00;;;;;19.24;76.38;100737.59;5110373;27;45351;-81
2022/05/16 03:36:58;;;;;;;;;14.75;14.25;;;;;19.25;76.35;100747.34;5108642;27;45493;-81
2022/05/16 03:42:07;;;;;;;;;15.75;15.00;;;;;19.27;76.07;100758.91;5110742;27;45643;-81
2022/05/16 03:44:33;;;;;;;;;14.00;13.00;;;;;19.14;76.49;100738.47;5110395;27;45335;-81
2022/05/16 03:46:59;;;;;;;;;17.75;16.25;;;;;19.31;76.17;100774.03;5111495;27;45323;-81
2022/05/16 03:49:24;;;;;;;;;17.25;17.00;;;;;19.17;76.31;100750.03;5110519;27;45200;-81
2022/05/16 03:51:50;;;;;;;;;19.25;18.00;;;;;19.09;75.60;100738.47;5110593;27;45150;-81
2022/05/16 03:54:17;;;;;;;;;15.75;14.75;;;;;19.21;76.32;100761.56;5110974;27;45374;-80
2022/05/16 03:56:42;;;;;;;;;16.00;15.75;;;;;19.16;76.10;100748.25;5092241;27;45192;-81
2022/05/16 03:59:08;;;;;;;;;18.75;17.00;;;;;19.10;76.19;100736.69;5110346;27;45497;-81
2022/05/16 04:01:33;;;;;;;;;16.75;15.75;;;;;19.19;75.82;100777.56;5116307;27;45171;-81
2022/05/16 04:03:58;;;;;;;;;15.75;15.50;;;;;19.04;75.68;100756.25;5109982;27;45634;-81
2022/05/16 04:06:24;;;;;;;;;16.75;14.50;;;;;19.15;76.21;100777.56;5104205;27;45319;-80
2022/05/16 04:08:49;;;;;;;;;18.75;17.75;;;;;19.02;76.21;100769.56;5128608;27;45846;-81
2022/05/16 04:11:16;;;;;;;;;16.25;16.25;;;;;19.13;76.38;100798.00;5115432;27;45462;-81
2022/05/16 04:13:43;;;;;;;;;21.00;19.25;;;;;19.07;76.18;100797.09;5108264;27;45602;-82
2022/05/16 04:16:08;;;;;;;;;16.50;16.50;;;;;19.07;76.21;100804.22;5099915;27;45796;-81
2022/05/16 04:18:33;;;;;;;;;13.25;11.75;;;;;19.14;76.45;100823.75;5116099;27;46837;-82
2022/05/16 04:20:59;;;;;;;;;19.50;17.00;;;;;19.13;76.15;100824.63;5129307;27;44953;-82
2022/05/16 04:23:25;;;;;;;;;19.00;17.75;;;;;19.04;76.37;100806.84;5130328;27;45180;-82
2022/05/16 04:25:50;;;;;;;;;16.75;16.00;;;;;18.95;76.33;100805.06;5131094;27;45092;-81
2022/05/16 04:28:15;;;;;;;;;20.25;19.25;;;;;19.03;76.44;100819.28;5129373;27;45903;-81
2022/05/16 04:30:42;;;;;;;;;23.33;23.00;;;;;19.19;76.26;100846.84;5129494;27;45018;-81
2022/05/16 04:33:08;;;;;;;;;18.00;18.00;;;;;18.99;76.20;100820.16;5130833;27;45289;-81
2022/05/16 04:35:36;;;;;;;;;25.75;23.00;;;;;19.19;76.35;100849.50;5111080;27;45459;-82
2022/05/16 04:38:02;;;;;;;;;18.75;18.25;;;;;18.91;76.65;100803.28;5130975;27;45418;-81
2022/05/16 04:40:27;;;;;;;;;19.25;18.25;;;;;18.86;76.16;100801.50;5130324;27;45366;-82
2022/05/16 04:42:53;;;;;;;;;20.75;19.00;;;;;19.14;76.53;100863.72;5125676;27;45693;-82
2022/05/16 04:45:27;;;;;;;;;22.25;19.00;;;;;19.23;76.33;100880.59;5111489;27;45290;-82
2022/05/16 04:48:01;;;;;;;;;20.50;20.25;;;;;18.87;76.49;100822.81;5126795;27;47920;-82
2022/05/16 04:50:29;;;;;;;;;23.25;19.75;;;;;18.96;76.54;100857.44;5120351;27;47130;-82
2022/05/16 04:52:55;;;;;;;;;21.25;18.75;;;;;18.67;75.75;100808.53;5107251;27;45690;-82
2022/05/16 04:55:21;;;;;;;;;20.25;19.50;;;;;19.32;76.06;100909.94;5111082;27;45495;-82
2022/05/16 04:57:47;;;;;;;;;20.75;20.75;;;;;19.30;76.01;100917.00;5110575;27;46399;-81
2022/05/16 05:00:14;;;;;;;;;24.00;21.75;;;;;19.25;75.26;100925.88;5102003;27;45647;-82
2022/05/16 05:02:40;;;;;;;;;28.25;25.00;;;;;19.15;75.22;100898.34;5100222;27;45466;-81
2022/05/16 05:05:07;;;;;;;;;21.75;21.50;;;;;18.90;75.76;100857.44;5111008;27;45686;-81
2022/05/16 05:07:32;;;;;;;;;22.00;20.25;;;;;19.20;75.74;100896.56;5124672;27;45467;-82
2022/05/16 05:15:25;;;;;;;;;23.50;23.50;;;;;19.05;75.50;100860.13;5128195;27;44997;-81
2022/05/16 05:17:51;;;;;;;;;23.75;22.75;;;;;19.16;75.29;100875.25;5113498;27;46226;-81
2022/05/16 05:20:17;;;;;;;;;23.75;23.75;;;;;19.43;75.96;100931.25;5120799;27;44733;-81
2022/05/16 05:22:44;;;;;;;;;23.50;22.50;;;;;19.17;75.56;100893.03;5127867;27;45354;-81
2022/05/16 05:25:12;;;;;;;;;23.00;22.00;;;;;19.41;75.79;100946.38;5126648;27;45166;-82
2022/05/16 05:27:40;;;;;;;;;21.25;20.25;;;;;19.14;76.08;100909.88;5124215;27;45480;-80
2022/05/16 05:30:13;;;;;;;;;18.75;18.00;;;;;19.33;75.42;100959.69;5116302;27;45447;-80
2022/05/16 05:32:38;;;;;;;;;21.25;20.25;;;;;19.03;75.43;100912.53;5111674;27;45182;-82
2022/05/16 05:35:05;;;;;;;;;23.75;23.50;;;;;19.17;75.38;100938.34;5108797;27;45257;-81
2022/05/16 05:37:32;;;;;;;;;23.50;23.50;;;;;19.39;75.53;100984.56;5089265;27;46388;-81
2022/05/16 05:40:01;;;;;;;;;24.50;21.75;;;;;19.41;75.15;100993.44;5108659;27;45630;-81
2022/05/16 05:42:31;;;;;;;;;23.75;21.50;;;;;19.12;75.35;100937.44;5107899;27;45112;-81
2022/05/16 05:44:57;;;;;;;;;26.00;23.00;;;;;19.34;75.28;100980.09;5109307;27;45019;-82
2022/05/16 05:47:23;;;;;;;;;24.00;24.00;;;;;19.33;75.06;100972.13;5108461;27;45350;-81
2022/05/16 05:49:48;;;;;;;;;24.00;22.00;;;;;19.46;75.71;100981.94;5106919;27;45123;-81
2022/05/16 05:52:15;;;;;;;;;25.00;24.00;;;;;19.37;75.01;100965.91;5106893;27;45208;-81
2022/05/16 05:54:41;;;;;;;;;23.50;23.00;;;;;19.57;74.74;100989.94;5107413;27;45118;-82
2022/05/16 05:57:07;;;;;;;;;25.00;23.75;;;;;19.42;74.30;100973.91;5108063;27;45492;-81
2022/05/16 05:59:32;;;;;;;;;25.50;24.00;;;;;19.57;73.87;101013.94;5107678;27;44992;-81
2022/05/16 06:01:58;;;;;;;;;24.50;23.00;;;;;19.57;74.13;101019.28;5108430;27;45056;-82
2022/05/16 06:04:23;;;;;;;;;22.50;22.25;;;;;19.23;74.21;100973.88;5110218;27;45136;-81
2022/05/16 06:06:48;;;;;;;;;22.75;22.50;;;;;19.27;74.25;100991.66;5111500;27;45309;-81
2022/05/16 06:09:14;;;;;;;;;29.00;27.25;;;;;19.19;74.31;100987.16;5111880;27;45118;-81
2022/05/16 06:11:39;;;;;;;;;26.50;26.00;;;;;19.30;73.96;100996.97;5111649;27;45138;-82
2022/05/16 06:14:05;;;;;;;;;27.25;25.00;;;;;19.34;74.11;101004.09;5093574;27;45089;-82
2022/05/16 06:16:30;;;;;;;;;23.50;22.50;;;;;19.56;74.01;101033.50;5108300;27;45415;-81
2022/05/16 06:18:55;;;;;;;;;25.25;25.00;;;;;19.37;73.54;100997.91;5093340;27;45202;-81
2022/05/16 06:21:21;;;;;;;;;26.50;25.00;;;;;19.67;73.96;101041.53;5111282;27;45305;-81
2022/05/16 06:23:46;;;;;;;;;27.50;26.00;;;;;19.74;73.90;101040.66;5111918;27;45215;-81
2022/05/16 06:26:12;;;;;;;;;24.25;23.75;;;;;19.53;73.31;100994.38;5109801;27;46134;-81
2022/05/16 06:28:39;;;;;;;;;21.00;20.25;;;;;19.93;73.37;101070.94;5108354;27;45088;-81
2022/05/16 06:31:05;;;;;;;;;23.00;22.50;;;;;20.01;72.68;101061.16;5111944;27;45194;-82
2022/05/16 06:33:31;;;;;;;;;25.25;24.00;;;;;19.71;73.17;101000.66;5109037;27;45411;-81
2022/05/16 06:35:57;;;;;;;;;23.50;23.50;;;;;20.12;72.16;101064.72;5111243;27;45905;-81
2022/05/16 06:38:27;;;;;;;;;27.75;27.25;;;;;20.08;72.56;101057.59;5111311;27;45599;-81
2022/05/16 06:40:53;;;;;;;;;22.25;21.75;;;;;19.94;71.50;101041.56;5111241;27;45155;-81
2022/05/16 06:43:20;;;;;;;;;24.25;23.00;;;;;20.19;71.56;101086.94;5111196;27;45259;-81
2022/05/16 06:45:46;;;;;;;;;22.00;21.00;;;;;19.97;71.07;101064.72;5109796;27;45268;-81
2022/05/16 06:48:12;;;;;;;;;22.25;20.25;;;;;20.15;70.81;101090.50;5110953;27;45077;-81
2022/05/16 06:50:40;;;;;;;;;20.00;19.00;;;;;20.08;70.66;101087.84;5127938;27;45380;-81
2022/05/16 06:53:10;;;;;;;;;26.00;21.25;;;;;20.12;70.17;101087.84;5112284;27;45372;-81
2022/05/16 06:55:35;;;;;;;;;17.00;16.50;;;;;20.13;70.49;101108.31;5131516;27;46047;-80
2022/05/16 06:58:01;;;;;;;;;19.00;17.25;;;;;19.86;70.45;101063.81;5131984;27;45335;-81
2022/05/16 07:00:26;;;;;;;;;19.00;19.00;;;;;19.95;70.58;101083.41;5131688;27;45075;-82
2022/05/16 07:02:52;;;;;;;;;17.00;17.00;;;;;20.18;70.15;101130.56;5129954;27;45525;-81
2022/05/16 07:05:17;;;;;;;;;15.25;14.50;;;;;20.17;69.64;101121.66;5112673;27;46506;-81
2022/05/16 07:07:43;;;;;;;;;17.50;16.50;;;;;20.01;69.84;101088.72;5130405;27;45146;-81
2022/05/16 07:10:08;;;;;;;;;18.75;18.75;;;;;20.28;70.23;101140.34;5130778;27;44988;-81
2022/05/16 07:12:34;;;;;;;;;15.25;15.25;;;;;20.20;69.58;101110.13;5110397;27;45130;-81
2022/05/16 07:14:59;;;;;;;;;18.25;17.25;;;;;20.27;69.35;101120.78;5110316;27;45621;-81
2022/05/16 07:17:25;;;;;;;;;14.75;14.00;;;;;20.49;68.69;101144.84;5107186;27;45444;-82
2022/05/16 07:19:51;;;;;;;;;15.25;14.50;;;;;20.49;68.45;101147.50;5102520;27;45408;-82
2022/05/16 07:22:22;;;;;;;;;19.25;17.50;;;;;20.51;68.18;101160.00;5097269;27;45568;-81
2022/05/16 07:24:48;;;;;;;;;15.00;14.25;;;;;20.40;68.76;101137.72;5099547;27;45529;-81
2022/05/16 07:29:57;;;;;;;;;14.50;13.25;;;;;20.71;67.71;101175.13;5100629;27;45465;-81
2022/05/16 07:32:23;;;;;;;;;14.50;14.00;;;;;20.55;68.16;101135.06;5105690;27;45426;-81
2022/05/16 07:34:49;;;;;;;;;16.25;15.75;;;;;20.84;68.46;101179.59;5098760;27;46886;-81
2022/05/16 07:37:14;;;;;;;;;13.75;13.50;;;;;20.70;67.50;101135.97;5106579;27;45574;-81
2022/05/16 07:39:39;;;;;;;;;19.25;16.75;;;;;20.75;67.16;101137.72;5095677;27;45774;-81
2022/05/16 07:42:07;;;;;;;;;16.00;14.50;;;;;21.04;67.35;101171.56;5122691;27;45302;-82
2022/05/16 07:44:38;;;;;;;;;14.75;14.75;;;;;21.04;66.73;101164.41;5121564;27;45503;-82
2022/05/16 07:47:04;;;;;;;;;13.50;13.25;;;;;21.03;66.28;101161.72;5128637;27;45509;-81
2022/05/16 07:49:29;;;;;;;;;15.25;13.00;;;;;20.95;65.99;101144.84;5124685;27;45535;-82
2022/05/16 07:51:55;;;;;;;;;13.00;12.25;;;;;21.01;65.45;101144.81;5123809;27;45041;-81
2022/05/16 07:54:21;;;;;;;;;14.00;12.75;;;;;20.95;65.42;101143.06;5122970;27;45334;-81
2022/05/16 07:56:49;;;;;;;;;16.25;15.50;;;;;21.22;65.53;101171.50;5123597;27;45014;-82
2022/05/16 07:59:16;;;;;;;;;15.50;14.25;;;;;21.26;65.94;101175.06;5118064;27;45382;-81
2022/05/16 08:01:41;;;;;;;;;15.00;15.00;;;;;21.20;65.46;101156.38;5121947;27;45719;-82
2022/05/16 08:04:07;;;;;;;;;15.75;15.50;;;;;21.20;65.62;101159.03;5119017;27;45441;-82
2022/05/16 08:06:33;;;;;;;;;15.75;14.75;;;;;21.24;64.97;101159.03;5122597;27;45228;-81
2022/05/16 08:11:43;;;;;;;;;12.50;12.50;;;;;21.46;65.06;101197.31;5110226;27;45081;-82
2022/05/16 08:14:08;;;;;;;;;13.50;13.50;;;;;21.23;65.27;101154.59;5100461;27;45625;-82
2022/05/16 08:16:34;;;;;;;;;13.75;12.75;;;;;21.43;64.42;101180.38;5102486;27;45449;-82
2022/05/16 08:19:00;;;;;;;;;17.00;15.00;;;;;21.31;64.07;101159.94;5098592;27;45309;-82
2022/05/16 08:21:25;;;;;;;;;13.25;13.25;;;;;21.33;63.90;101155.47;5104066;27;44996;-82
2022/05/16 08:23:51;;;;;;;;;10.25;10.25;;;;;21.27;63.16;101152.78;5096406;27;46084;-81
2022/05/16 08:26:17;;;;;;;;;16.25;14.50;;;;;21.55;63.20;101205.31;5103398;27;45422;-81
2022/05/16 08:28:42;;;;;;;;;12.25;12.00;;;;;21.43;62.94;101186.66;5112526;27;45852;-81
2022/05/16 08:31:08;;;;;;;;;12.50;12.25;;;;;21.59;62.44;101225.81;5124101;27;44978;-82
2022/05/16 08:33:35;;;;;;;;;12.25;10.75;;;;;21.46;63.22;101202.66;5119138;27;45435;-82
2022/05/16 08:41:44;;;;;;;;;12.00;11.25;;;;;21.58;62.53;101240.09;5064381;27;45650;-82
2022/05/16 08:44:21;;;;;;;;;10.25;9.75;;;;;21.20;62.17;101175.06;5120932;27;45413;-82
2022/05/16 08:47:01;;;;;;;;;13.00;11.00;;;;;21.19;62.71;101186.66;5103986;27;45426;-82
2022/05/16 08:49:32;;;;;;;;;13.75;13.75;;;;;21.28;62.94;101206.25;5119085;27;45506;-81
2022/05/16 08:52:06;;;;;;;;;16.25;14.00;;;;;21.36;63.47;101228.53;5120416;27;45448;-82
2022/05/16 08:54:40;;;;;;;;;14.75;14.25;;;;;21.35;63.54;101234.78;5096471;27;46361;-82
2022/05/16 08:57:11;;;;;;;;;13.75;13.75;;;;;20.69;63.83;101127.06;5103473;27;45551;-82
2022/05/16 08:59:41;;;;;;;;;10.75;10.75;;;;;21.15;62.77;101211.63;5119239;27;45472;-82
2022/05/16 09:02:19;;;;;;;;;13.25;13.00;;;;;21.33;63.37;101225.88;5127614;27;45263;-81
2022/05/16 09:04:50;;;;;;;;;13.50;11.50;;;;;21.46;63.00;101260.63;5103587;27;47472;-81
2022/05/16 09:07:29;;;;;;;;;13.50;12.75;;;;;21.36;63.47;101235.66;5126587;27;46062;-81
2022/05/16 09:10:39;;;;;;;;;14.00;12.50;;;;;21.52;63.70;101269.50;5121415;27;45101;-81
2022/05/16 09:13:22;;;;;;;;;14.00;14.00;;;;;21.40;64.18;101239.25;5076745;27;45391;-81
2022/05/16 09:16:17;;;;;;;;;9.75;9.75;;;;;21.71;64.51;101267.69;5079860;27;47171;-81
2022/05/16 09:19:11;;;;;;;;;10.75;10.50;;;;;21.83;64.04;101269.44;5072341;27;45852;-81
2022/05/16 09:22:01;;;;;;;;;11.25;10.75;;;;;22.06;64.39;101286.28;5090039;27;45421;-81
2022/05/16 09:24:37;;;;;;;;;11.75;10.75;;;;;22.04;61.75;101264.00;5108755;27;45267;-81
2022/05/16 09:28:34;;;;;;;;;11.00;11.00;;;;;22.01;61.70;101245.25;5109738;27;46259;-81
2022/05/16 09:30:08;;;;;;;;;10.50;10.25;;;;;21.98;61.31;101217.66;5108629;27;45143;-81
2022/05/16 09:32:39;;;;;;;;;11.00;10.50;;;;;22.23;61.75;101266.66;5108570;27;45065;-81
2022/05/16 09:35:18;;;;;;;;;14.75;13.75;;;;;21.95;62.23;101229.25;5091247;27;45376;-82
2022/05/16 09:37:44;;;;;;;;;12.50;12.50;;;;;21.88;61.91;101238.22;5106952;27;45918;-82
2022/05/16 09:40:10;;;;;;;;;14.25;13.25;;;;;21.70;61.91;101228.44;5086396;27;45579;-81
2022/05/16 09:42:37;;;;;;;;;13.25;12.25;;;;;21.62;62.57;101235.59;5093417;27;45057;-82
2022/05/16 09:45:03;;;;;;;;;14.00;12.50;;;;;21.88;62.64;101281.91;5112571;27;45177;-81
2022/05/16 09:47:29;;;;;;;;;14.00;12.75;;;;;21.79;62.27;101287.28;5091802;27;47030;-82
2022/05/16 09:50:14;;;;;;;;;8.00;8.00;;;;;21.60;61.10;101289.13;5105688;27;45415;-82
2022/05/16 09:52:46;;;;;;;;;11.00;10.00;;;;;21.37;61.53;101283.78;5111435;27;45375;-82
2022/05/16 09:55:34;;;;;;;;;11.75;10.00;;;;;21.19;62.27;101262.41;5110326;27;45067;-80
2022/05/16 09:58:12;;;;;;;;;9.75;9.00;;;;;21.28;61.91;101282.88;5091801;27;46692;-82
2022/05/16 10:00:53;;;;;;;;;9.50;9.50;;;;;21.41;61.50;101295.38;5107697;27;45345;-82
2022/05/16 10:03:26;;;;;;;;;8.00;8.00;;;;;21.42;61.96;101290.94;5111673;27;44890;-81
2022/05/16 10:05:53;;;;;;;;;11.25;11.25;;;;;21.43;62.16;101298.97;5092282;27;45221;-82
2022/05/16 10:08:32;;;;;;;;;10.00;9.75;;;;;21.46;61.57;101303.41;5110946;27;46009;-82
2022/05/16 10:11:07;;;;;;;;;11.50;10.00;;;;;21.44;60.98;101300.75;5108128;27;45090;-82
2022/05/16 10:13:34;;;;;;;;;10.00;10.00;;;;;21.23;61.32;101252.59;5111842;27;45308;-82
2022/05/16 10:16:04;;;;;;;;;10.00;9.00;;;;;21.69;61.45;101296.25;5110366;27;45285;-82
2022/05/16 10:18:35;;;;;;;;;10.25;10.25;;;;;21.83;60.91;101296.22;5109642;27;45407;-82
2022/05/16 10:21:07;;;;;;;;;11.75;11.00;;;;;21.63;60.91;101246.31;5111621;27;45565;-82
2022/05/16 10:23:37;;;;;;;;;8.75;8.25;;;;;21.82;60.90;101263.22;5110240;27;45199;-82
2022/05/16 10:26:07;;;;;;;;;9.75;9.00;;;;;21.97;60.56;101283.69;5112517;27;45205;-82
2022/05/16 10:28:40;;;;;;;;;11.00;11.00;;;;;22.05;59.99;101284.53;5110483;27;46988;-81
2022/05/16 10:34:07;;;;;;;;;10.00;10.00;;;;;22.13;60.05;101309.53;5108778;27;44986;-82
2022/05/16 10:36:35;;;;;;;;;10.00;9.00;;;;;22.22;59.81;101321.09;5092856;27;45380;-82
2022/05/16 10:39:13;;;;;;;;;8.25;8.00;;;;;22.17;59.45;101294.34;5109921;27;46344;-82
2022/05/16 10:41:56;;;;;;;;;9.00;9.00;;;;;22.39;59.31;101305.81;5111578;27;45196;-82
2022/05/16 10:44:43;;;;;;;;;8.00;8.00;;;;;22.60;59.47;101311.06;5110855;27;45078;-82
2022/05/16 10:47:23;;;;;;;;;8.75;8.00;;;;;22.66;58.67;101307.47;5110537;27;45419;-81
2022/05/16 10:50:30;;;;;;;;;8.75;8.00;;;;;22.71;58.98;101308.34;5109894;27;45768;-82
2022/05/16 10:53:10;;;;;;;;;8.50;8.50;;;;;22.72;58.68;101298.50;5085565;27;45503;-81
2022/05/16 10:55:47;;;;;;;;;9.25;8.75;;;;;22.77;58.54;101312.75;5111192;27;45254;-82
2022/05/16 10:58:49;;;;;;;;;11.25;9.75;;;;;22.50;57.81;101279.88;5117448;27;45876;-82
2022/05/16 11:01:21;;;;;;;;;9.00;9.00;;;;;22.62;57.78;101306.59;5131284;27;46248;-82
2022/05/16 11:03:57;;;;;;;;;8.50;7.75;;;;;22.78;57.39;101306.50;5130611;27;45196;-82
2022/05/16 11:06:40;;;;;;;;;11.00;10.00;;;;;22.88;57.11;101316.25;5127553;27;45016;-81
2022/05/16 11:09:17;;;;;;;;;7.75;6.50;;;;;23.12;56.89;101304.50;5107800;27;45329;-82
2022/05/16 11:11:56;;;;;;;;;9.00;8.00;;;;;23.30;56.50;101300.75;5113003;27;45660;-82
2022/05/16 11:14:40;;;;;;;;;9.00;8.25;;;;;23.40;55.89;101300.69;5105453;27;45557;-81
2022/05/16 11:17:43;;;;;;;;;8.50;8.00;;;;;23.64;55.43;101280.78;5104729;27;45373;-82
2022/05/16 11:20:19;;;;;;;;;7.25;7.25;;;;;23.61;55.19;101245.00;5104874;27;45372;-82
2022/05/16 11:22:56;;;;;;;;;9.25;8.00;;;;;23.93;54.83;101301.03;5069588;28;45752;-82
2022/05/16 11:25:33;;;;;;;;;8.75;6.50;;;;;23.98;55.06;101293.81;5069769;28;45199;-82
2022/05/16 11:28:11;;;;;;;;;7.25;6.50;;;;;24.04;54.77;101304.50;5069215;28;45134;-82
2022/05/16 11:30:40;;;;;;;;;6.50;5.00;;;;;23.74;53.91;101256.50;5067352;28;45772;-82
2022/05/16 11:33:14;;;;;;;;;6.50;6.00;;;;;23.85;53.84;101295.75;5069760;28;45874;-82
2022/05/16 11:35:40;;;;;;;;;6.00;6.00;;;;;23.83;53.78;101294.00;5069737;28;45095;-82
2022/05/16 11:38:22;;;;;;;;;6.00;6.00;;;;;23.85;53.85;101300.25;5070006;28;45059;-82
2022/05/16 11:40:51;;;;;;;;;6.00;6.00;;;;;23.76;53.26;101293.19;5068526;28;45344;-82
2022/05/16 11:43:17;;;;;;;;;6.00;5.50;;;;;23.70;53.58;101289.69;5069618;28;45921;-82
2022/05/16 11:46:00;;;;;;;;;6.67;6.67;;;;;23.78;54.87;101293.16;5068887;28;45444;-82
2022/05/16 11:48:50;;;;;;;;;4.50;4.25;;;;;23.75;53.98;101263.69;5077613;28;45098;-82
2022/05/16 11:51:25;;;;;;;;;6.00;6.00;;;;;24.25;54.52;101287.22;5089758;27;44983;-82
2022/05/16 11:53:57;;;;;;;;;7.00;6.75;;;;;24.65;53.25;101287.56;5088809;28;47480;-82